KDLF/DLF METAR and TAF weather

Enter ICAO airport designator
Station Type Date Time Source
KDLF METAR 2019/05/25 15:56 UTC NOAA

KDLF 251556Z AUTO M M M M M M RMK AO2 SLPNO RVRNO PWINO PNO VISNO RWY31 CHINO RW


Station Type Date Time Source
KDLF Decoded METAR 2019/05/25 15:56 UTC NOAA

Laughlin, Laughlin Air Force Base Auxiliary Airfield, TX, United States (KDLF) 29-07-00N 100-28-00W 294M
May 25, 2019 - 11:56 AM EDT / 2019.05.25 1556 UTC
ob: KDLF 251556Z AUTO M M M M M M RMK AO2 SLPNO RVRNO PWINO PNO VISNO RWY31 CHINO RWY31
cycle: 16

Station Type Date Time Source
KDLF TAF 2019/05/23 23:03 UTC NOAA

TAF KDLF 232300Z 2323/2424 14012G18KT 9999 SCT060 510053 QNH2973INS
BECMG 2400/2401 14012KT 9999 FEW070 510053 QNH2975INS
BECMG 2403/2404 11018KT 9999 SCT022 510053 QNH2979INS
BECMG 2407/2408 12015KT 9999 BKN014 510053 QNH2984INS
BECMG 2413/2414 14020KT 9999 SCT014 510053 QNH2989INS
BECMG 2414/2415 15020G30KT 9999 BKN022 540053 QNH2990INS TX36/2323Z TN24/2412Z LAST NO
AMD AFT 2323 NEXT 2810

Example: see airport list